createdAt,value
2017-05-20T00:00:03.330Z,0
2017-05-20T00:05:03.419Z,2
2017-05-20T00:10:03.218Z,2
2017-05-20T00:15:02.841Z,1
2017-05-20T00:20:02.599Z,1
2017-05-20T00:25:03.368Z,2
2017-05-20T00:30:03.087Z,2
2017-05-20T00:35:02.892Z,0
2017-05-20T00:40:02.675Z,2
2017-05-20T00:45:03.473Z,1
2017-05-20T00:50:03.323Z,0
2017-05-20T00:55:02.938Z,2
2017-05-20T01:00:02.642Z,2
2017-05-20T01:05:03.266Z,1
2017-05-20T01:10:03.036Z,0
2017-05-20T01:15:02.740Z,2
2017-05-20T01:20:02.695Z,0
2017-05-20T01:25:03.380Z,0
2017-05-20T01:30:03.127Z,0
2017-05-20T01:35:02.796Z,2
2017-05-20T01:40:03.607Z,0
2017-05-20T01:45:03.200Z,0
2017-05-20T01:50:02.987Z,0
2017-05-20T01:55:02.586Z,0
2017-05-20T02:00:03.163Z,0
2017-05-20T02:05:02.797Z,0
2017-05-20T02:10:03.444Z,0
2017-05-20T02:15:03.142Z,0
2017-05-20T02:20:02.919Z,0
2017-05-20T02:25:02.743Z,0
2017-05-20T02:30:03.438Z,0
2017-05-20T02:35:03.265Z,0
2017-05-20T02:40:02.934Z,0
2017-05-20T02:45:02.744Z,0
2017-05-20T02:50:03.384Z,0
2017-05-20T02:55:03.044Z,0
2017-05-20T03:00:02.704Z,0
2017-05-20T03:05:03.335Z,0
2017-05-20T03:10:02.990Z,0
2017-05-20T03:15:02.608Z,0
2017-05-20T03:20:50.729Z,1
2017-05-20T03:25:03.415Z,0
2017-05-20T03:30:03.184Z,0
2017-05-20T03:35:02.791Z,0
2017-05-20T03:40:03.522Z,0
2017-05-20T03:45:03.132Z,0
2017-05-20T03:50:02.752Z,2
2017-05-20T03:55:03.499Z,0
2017-05-20T04:00:03.096Z,0
2017-05-20T04:05:02.797Z,0
2017-05-20T04:10:02.603Z,0
2017-05-20T04:15:03.363Z,2
2017-05-20T04:20:02.948Z,0
2017-05-20T04:25:03.560Z,3
2017-05-20T04:30:02.782Z,4
2017-05-20T04:35:03.513Z,4
2017-05-20T04:40:03.297Z,2
2017-05-20T04:45:02.863Z,3
2017-05-20T04:50:03.444Z,1
2017-05-20T04:55:03.207Z,0
2017-05-20T05:00:02.926Z,0
2017-05-20T05:05:03.616Z,0
2017-05-20T05:10:03.444Z,2
2017-05-20T05:15:03.029Z,2
2017-05-20T05:20:02.846Z,2
2017-05-20T05:25:03.605Z,3
2017-05-20T05:30:03.458Z,2
2017-05-20T05:35:03.179Z,3
2017-05-20T05:40:02.832Z,2
2017-05-20T05:45:03.589Z,3
2017-05-20T05:50:03.160Z,3
2017-05-20T05:55:02.980Z,5
2017-05-20T06:00:02.622Z,3
2017-05-20T06:05:03.321Z,5
2017-05-20T06:10:03.200Z,5
2017-05-20T06:15:02.967Z,4
2017-05-20T06:20:02.715Z,3
2017-05-20T06:25:03.412Z,3
2017-05-20T06:30:03.019Z,6
2017-05-20T06:35:02.795Z,3
2017-05-20T06:40:03.569Z,5
2017-05-20T06:45:03.325Z,6
2017-05-20T06:50:02.998Z,4
2017-05-20T06:55:02.718Z,5
2017-05-20T07:00:03.319Z,5
2017-05-20T07:05:03.140Z,7
2017-05-20T07:10:02.997Z,5
2017-05-20T07:15:02.826Z,4
2017-05-20T07:20:03.602Z,4
2017-05-20T07:25:03.453Z,4
2017-05-20T07:30:03.268Z,5
2017-05-20T07:35:02.889Z,3
2017-05-20T07:40:02.655Z,2
2017-05-20T07:45:03.366Z,6
2017-05-20T07:50:03.214Z,3
2017-05-20T07:55:03.102Z,2
2017-05-20T08:00:02.715Z,6
2017-05-20T08:05:03.397Z,4
2017-05-20T08:10:03.183Z,1
2017-05-20T08:15:02.956Z,0
2017-05-20T08:20:02.650Z,3
2017-05-20T08:25:03.260Z,2
2017-05-20T08:30:03.148Z,3
2017-05-20T08:35:03.003Z,3
2017-05-20T08:40:02.779Z,5
2017-05-20T08:45:03.549Z,2
2017-05-20T08:50:03.251Z,3
2017-05-20T08:55:03.005Z,5
2017-05-20T09:00:02.723Z,3
2017-05-20T09:05:03.454Z,2
2017-05-20T09:10:02.943Z,6
2017-05-20T09:15:03.075Z,4
2017-05-20T09:20:02.849Z,7
2017-05-20T09:25:02.676Z,5
2017-05-20T09:30:02.670Z,3
2017-05-20T09:35:03.386Z,3
2017-05-20T09:40:03.472Z,4
2017-05-20T09:45:03.375Z,6
2017-05-20T09:50:03.234Z,7
2017-05-20T09:55:03.218Z,5
2017-05-20T10:00:03.518Z,4
2017-05-20T10:05:03.263Z,2
2017-05-20T10:10:02.919Z,3
2017-05-20T10:15:02.966Z,7
2017-05-20T10:20:02.954Z,7
2017-05-20T10:25:02.977Z,4
2017-05-20T10:30:03.388Z,3
2017-05-20T10:35:02.800Z,4
2017-05-20T10:40:03.487Z,7
2017-05-20T10:45:02.651Z,4
2017-05-20T10:50:03.231Z,7
2017-05-20T10:55:02.838Z,9
2017-05-20T11:00:03.495Z,9
2017-05-20T11:05:03.526Z,6
2017-05-20T11:10:03.069Z,6
2017-05-20T11:15:02.890Z,4
2017-05-20T11:20:03.276Z,6
2017-05-20T11:25:02.958Z,7
2017-05-20T11:30:03.205Z,7
2017-05-20T11:35:03.094Z,7
2017-05-20T11:40:02.658Z,6
2017-05-20T11:45:03.118Z,6
2017-05-20T11:50:03.557Z,5
2017-05-20T11:55:03.162Z,6
2017-05-20T12:00:03.483Z,6
2017-05-20T12:05:03.170Z,8
2017-05-20T12:10:03.260Z,7
2017-05-20T12:15:03.103Z,7
2017-05-20T12:20:03.343Z,5
2017-05-20T12:25:03.116Z,4
2017-05-20T12:30:02.782Z,4
2017-05-20T12:35:02.752Z,9
2017-05-20T12:40:03.480Z,6
2017-05-20T12:45:03.029Z,4
2017-05-20T12:50:02.743Z,6
2017-05-20T12:55:03.409Z,6
2017-05-20T13:00:02.961Z,7
2017-05-20T13:05:03.435Z,4
2017-05-20T13:10:02.620Z,9
2017-05-20T13:15:02.924Z,7
2017-05-20T13:20:03.570Z,5
2017-05-20T13:25:03.493Z,7
2017-05-20T13:30:03.062Z,8
2017-05-20T13:35:03.141Z,7
2017-05-20T13:40:02.860Z,5
2017-05-20T13:45:03.137Z,2
2017-05-20T13:50:02.654Z,7
2017-05-20T13:55:03.153Z,4
2017-05-20T14:00:02.776Z,8
2017-05-20T14:05:03.090Z,4
2017-05-20T14:10:03.582Z,5
2017-05-20T14:15:03.130Z,7
2017-05-20T14:20:02.669Z,5
2017-05-20T14:25:03.100Z,5
2017-05-20T14:30:02.818Z,5
2017-05-20T14:35:03.249Z,4
2017-05-20T14:40:03.027Z,7
2017-05-20T14:45:02.661Z,2
2017-05-20T14:50:03.043Z,2
2017-05-20T14:55:03.568Z,6
2017-05-20T15:00:03.187Z,8
2017-05-20T15:05:02.717Z,4
2017-05-20T15:10:03.307Z,2
2017-05-20T15:15:02.777Z,6
2017-05-20T15:20:03.349Z,5
2017-05-20T15:25:02.947Z,6
2017-05-20T15:30:03.316Z,6
2017-05-20T15:35:03.444Z,4
2017-05-20T15:40:02.853Z,0
2017-05-20T15:45:03.343Z,5
2017-05-20T15:50:02.922Z,3
2017-05-20T15:55:03.297Z,3
2017-05-20T16:00:02.887Z,3
2017-05-20T16:05:03.326Z,6
2017-05-20T16:10:02.630Z,5
2017-05-20T16:15:03.230Z,5
2017-05-20T16:20:03.532Z,2
2017-05-20T16:25:03.128Z,7
2017-05-20T16:30:03.486Z,4
2017-05-20T16:35:03.264Z,2
2017-05-20T16:40:03.543Z,6
2017-05-20T16:45:03.229Z,3
2017-05-20T16:50:02.685Z,5
2017-05-20T16:55:02.951Z,2
2017-05-20T17:00:03.353Z,4
2017-05-20T17:05:03.445Z,3
2017-05-20T17:10:03.357Z,3
2017-05-20T17:15:03.048Z,2
2017-05-20T17:20:02.638Z,2
2017-05-20T17:25:02.747Z,3
2017-05-20T17:30:02.661Z,4
2017-05-20T17:35:03.471Z,7
2017-05-20T17:40:03.535Z,4
2017-05-20T17:45:02.959Z,3
2017-05-20T17:50:02.946Z,6
2017-05-20T17:55:03.149Z,2
2017-05-20T18:00:03.309Z,4
2017-05-20T18:05:03.037Z,4
2017-05-20T18:10:03.011Z,4
2017-05-20T18:15:03.028Z,1
2017-05-20T18:20:02.786Z,0
2017-05-20T18:25:03.280Z,4
2017-05-20T18:30:03.587Z,2
2017-05-20T18:35:03.498Z,0
2017-05-20T18:40:03.279Z,0
2017-05-20T18:45:03.374Z,0
2017-05-20T18:50:03.159Z,2
2017-05-20T18:55:02.794Z,2
2017-05-20T19:00:03.380Z,2
2017-05-20T19:05:03.188Z,2
2017-05-20T19:10:03.281Z,0
2017-05-20T19:15:02.823Z,0
2017-05-20T19:20:02.829Z,0
2017-05-20T19:25:02.956Z,0
2017-05-20T19:30:02.994Z,0
2017-05-20T19:35:03.208Z,0
2017-05-20T19:40:03.049Z,0
2017-05-20T19:45:03.474Z,0
2017-05-20T19:50:02.714Z,0
2017-05-20T19:55:03.288Z,0
2017-05-20T20:00:02.939Z,0
2017-05-20T20:05:03.253Z,0
2017-05-20T20:10:03.511Z,0
2017-05-20T20:15:02.949Z,0
2017-05-20T20:20:02.914Z,0
2017-05-20T20:25:03.055Z,0
2017-05-20T20:30:02.953Z,0
2017-05-20T20:35:03.466Z,0
2017-05-20T20:40:02.597Z,0
2017-05-20T20:45:03.534Z,0
2017-05-20T20:50:02.936Z,0
2017-05-20T20:55:02.972Z,0
2017-05-20T21:00:03.527Z,0
2017-05-20T21:05:03.284Z,0
2017-05-20T21:10:03.557Z,0
2017-05-20T21:15:03.545Z,0
2017-05-20T21:20:03.364Z,0
2017-05-20T21:25:03.220Z,0
2017-05-20T21:30:03.031Z,0
2017-05-20T21:35:02.716Z,0
2017-05-20T21:40:03.533Z,0
2017-05-20T21:45:03.301Z,0
2017-05-20T21:50:02.950Z,0
2017-05-20T21:55:02.726Z,0
2017-05-20T22:00:03.501Z,0
2017-05-20T22:05:03.378Z,0
2017-05-20T22:10:03.020Z,0
2017-05-20T22:15:02.613Z,0
2017-05-20T22:20:03.193Z,0
2017-05-20T22:25:02.842Z,0
2017-05-20T22:30:03.585Z,0
2017-05-20T22:35:03.136Z,0
2017-05-20T22:40:02.917Z,0
2017-05-20T22:45:03.575Z,0
2017-05-20T22:50:03.374Z,0
2017-05-20T22:55:03.120Z,0
2017-05-20T23:00:02.702Z,0
2017-05-20T23:05:02.796Z,0
2017-05-20T23:10:02.616Z,0
2017-05-20T23:15:03.358Z,0
2017-05-20T23:20:02.991Z,0
2017-05-20T23:25:02.648Z,0
2017-05-20T23:30:03.197Z,0
2017-05-20T23:35:02.909Z,0
2017-05-20T23:40:02.714Z,0
2017-05-20T23:45:03.395Z,0
2017-05-20T23:50:02.967Z,0
2017-05-20T23:55:02.742Z,0
